Independence of the Seas — C6WW4 — position and weather

sailwx.info

Track history (hours):
 
Tides and Currents Weather Stations Pressure Air Temp Water Temp Dewpoint Dewpoint Depression Visibility Wind Speed Wind Dir Waves Ship Positions

Independence of the Seas

Last reported at 2014-Nov-26 02:15 UTC. Time now 2014-Nov-26 11:17 UTC.
Position N 17°58' W 063°29'.

Length 339 m; draft 8.8 m.

Type: Passenger vessel. MMSI: 309374000.

Date/timePositionNaut miles runAvg speedWind from/ knotsBaromVisibWave heightAir tempDewpointWater temp
2014-Nov-26 02:15N 17°58' W 063°29'5 6.8
2014-Nov-26 01:33N 18°02' W 063°27'9 8.1
2014-Nov-26 00:28N 18°01' W 063°18'10 8.0
2014-Nov-25 23:11N 18°01' W 063°07'0 0.0
2014-Nov-25 11:21N 18°01' W 063°07'1515.7
2014-Nov-25 10:24N 18°09' W 063°20'  
2014-Nov-23 00:33N 26°08' W 079°45'1716.4
2014-Nov-22 23:33N 26°05' W 080°03'3 3.0
2014-Nov-22 22:27N 26°05' W 080°07'0 0.0
2014-Nov-22 21:24N 26°05' W 080°07'0 0.0
2014-Nov-22 20:27N 26°05' W 080°07'0 0.0
2014-Nov-22 19:30N 26°05' W 080°07'0 0.0
2014-Nov-22 18:30N 26°05' W 080°07'0 0.0
2014-Nov-22 17:30N 26°05' W 080°07'0 0.0
2014-Nov-22 16:30N 26°05' W 080°07'0 0.0
2014-Nov-22 15:33N 26°05' W 080°07'0 0.0
2014-Nov-22 14:33N 26°05' W 080°07'0 0.0
2014-Nov-22 13:33N 26°05' W 080°07'0 0.0
2014-Nov-22 12:33N 26°05' W 080°07'0 0.0
2014-Nov-22 11:33N 26°05' W 080°07'0 0.0
2014-Nov-22 10:33N 26°05' W 080°07'2 1.6
2014-Nov-22 09:33N 26°06' W 080°05'1010.2
2014-Nov-22 08:33N 25°57' W 079°59'1817.3
2014-Nov-22 07:33N 25°40' W 079°58'49116.4
2014-Nov-21 01:32N 20°34' W 086°57'6 5.4
2014-Nov-21 00:28N 20°29' W 086°59'0 0.0
2014-Nov-20 23:28N 20°29' W 086°59'0 0.0
2014-Nov-20 22:28N 20°29' W 086°59'0 0.0
2014-Nov-20 21:28N 20°29' W 086°59'0 0.0
2014-Nov-20 20:28N 20°29' W 086°59'0 0.0
2014-Nov-20 19:16N 20°29' W 086°59'0 0.0
2014-Nov-20 18:28N 20°29' W 086°59'0 0.0
2014-Nov-20 17:28N 20°29' W 086°59'0 0.0
2014-Nov-20 16:28N 20°29' W 086°59'0 0.0
2014-Nov-20 15:28N 20°29' W 086°59'1 1.0
2014-Nov-20 14:33N 20°29' W 086°60'  
Track history (hours):
 
Tides and Currents Weather Stations Pressure Air Temp Water Temp Dewpoint Dewpoint Depression Visibility Wind Speed Wind Dir Waves Ship Positions

Independence of the Seas

Last reported at 2014-Nov-26 02:15 UTC. Time now 2014-Nov-26 11:17 UTC.
Position N 17°58' W 063°29'.

Length 339 m; draft 8.8 m.

Type: Passenger vessel. MMSI: 309374000.

Date/timePositionNaut miles runAvg speedWind from/ knotsBaromVisibWave heightAir tempDewpointWater temp
2014-Nov-26 02:15N 17°58' W 063°29'5 6.8
2014-Nov-26 01:33N 18°02' W 063°27'9 8.1
2014-Nov-26 00:28N 18°01' W 063°18'10 8.0
2014-Nov-25 23:11N 18°01' W 063°07'0 0.0
2014-Nov-25 11:21N 18°01' W 063°07'1515.7
2014-Nov-25 10:24N 18°09' W 063°20'  
2014-Nov-23 00:33N 26°08' W 079°45'1716.4
2014-Nov-22 23:33N 26°05' W 080°03'3 3.0
2014-Nov-22 22:27N 26°05' W 080°07'0 0.0
2014-Nov-22 21:24N 26°05' W 080°07'0 0.0
2014-Nov-22 20:27N 26°05' W 080°07'0 0.0
2014-Nov-22 19:30N 26°05' W 080°07'0 0.0
2014-Nov-22 18:30N 26°05' W 080°07'0 0.0
2014-Nov-22 17:30N 26°05' W 080°07'0 0.0
2014-Nov-22 16:30N 26°05' W 080°07'0 0.0
2014-Nov-22 15:33N 26°05' W 080°07'0 0.0
2014-Nov-22 14:33N 26°05' W 080°07'0 0.0
2014-Nov-22 13:33N 26°05' W 080°07'0 0.0
2014-Nov-22 12:33N 26°05' W 080°07'0 0.0
2014-Nov-22 11:33N 26°05' W 080°07'0 0.0
2014-Nov-22 10:33N 26°05' W 080°07'2 1.6
2014-Nov-22 09:33N 26°06' W 080°05'1010.2
2014-Nov-22 08:33N 25°57' W 079°59'1817.3
2014-Nov-22 07:33N 25°40' W 079°58'49116.4
2014-Nov-21 01:32N 20°34' W 086°57'6 5.4
2014-Nov-21 00:28N 20°29' W 086°59'0 0.0
2014-Nov-20 23:28N 20°29' W 086°59'0 0.0
2014-Nov-20 22:28N 20°29' W 086°59'0 0.0
2014-Nov-20 21:28N 20°29' W 086°59'0 0.0
2014-Nov-20 20:28N 20°29' W 086°59'0 0.0
2014-Nov-20 19:16N 20°29' W 086°59'0 0.0
2014-Nov-20 18:28N 20°29' W 086°59'0 0.0
2014-Nov-20 17:28N 20°29' W 086°59'0 0.0
2014-Nov-20 16:28N 20°29' W 086°59'0 0.0
2014-Nov-20 15:28N 20°29' W 086°59'1 1.0
2014-Nov-20 14:33N 20°29' W 086°60'  

Dump ship's entire track history